Bjoyce — WDH2127 — position and weather

sailwx.info

Track history (hours):
 
Tides and Currents Weather Stations Pressure Air Temp Water Temp Dewpoint Dewpoint Depression Visibility Wind Speed Wind Dir Waves Ship Positions

Bjoyce

Owner: BJoyce Adventures LLC, Green Cove Springs, FL. More information available from US FCC via Universal Licensing System and Coast Guard Vessel Documentation Center.

Last reported at 2018-Jun-25 12:45 UTC. Time now 2018-Jun-25 17:51 UTC.
Position N 44°11' W 068°57'.

Length 17 m; draft 2.1 m.

Type: Pleasure craft. MMSI: 367434020.

Date/timePositionNaut miles runAvg speedWind from/ knotsBaromVisibWave heightAir tempDewpointWater temp
2018-Jun-25 12:45N 44°11' W 068°57'2 7.2
2018-Jun-25 12:30N 44°09' W 068°58'3 6.7
2018-Jun-25 12:00N 44°07' W 069°01'9 1.0
2018-Jun-25 03:45N 43°60' W 069°08'0 0.0
2018-Jun-25 03:29N 43°60' W 069°08'0 0.0
2018-Jun-25 02:59N 43°60' W 069°08'49 1.0
2018-Jun-23 03:12N 43°44' W 070°12'0 0.0
2018-Jun-23 02:54N 43°44' W 070°12'0 0.0
2018-Jun-23 02:24N 43°44' W 070°12'0 0.0
2018-Jun-21 16:57N 43°44' W 070°12'0 0.0
2018-Jun-21 16:30N 43°44' W 070°12'0 0.0
2018-Jun-21 15:54N 43°44' W 070°12'0 0.0
2018-Jun-21 15:30N 43°44' W 070°12'0 0.0
2018-Jun-21 15:00N 43°44' W 070°12'0 0.0
2018-Jun-21 14:30N 43°44' W 070°12'0 0.0
2018-Jun-21 12:57N 43°44' W 070°12'0 0.0
2018-Jun-21 12:30N 43°44' W 070°12'0 0.0
2018-Jun-21 12:00N 43°44' W 070°12'0 0.0
2018-Jun-21 11:30N 43°44' W 070°12'0 0.0
2018-Jun-21 11:00N 43°44' W 070°12'0 0.0
2018-Jun-21 10:24N 43°44' W 070°12'0 0.0
2018-Jun-21 10:00N 43°44' W 070°12'0 0.0
2018-Jun-21 09:30N 43°44' W 070°12'0 0.0
2018-Jun-21 09:00N 43°44' W 070°12'0 0.0
2018-Jun-21 08:27N 43°44' W 070°12'0 0.0
2018-Jun-21 07:57N 43°44' W 070°12'0 0.0
2018-Jun-21 07:30N 43°44' W 070°12'0 0.0
2018-Jun-21 07:00N 43°44' W 070°12'0 0.0
2018-Jun-21 06:30N 43°44' W 070°12'0 0.0
2018-Jun-21 06:00N 43°44' W 070°12'0 0.0
2018-Jun-21 05:30N 43°44' W 070°12'0 0.0
2018-Jun-21 05:00N 43°44' W 070°12'0 0.0
2018-Jun-21 04:30N 43°44' W 070°12'0 0.0
2018-Jun-21 04:00N 43°44' W 070°12'0 0.0
2018-Jun-21 03:24N 43°44' W 070°12'0 0.0
2018-Jun-21 03:00N 43°44' W 070°12'0 0.0
2018-Jun-21 02:30N 43°44' W 070°12'0 0.0
2018-Jun-21 02:00N 43°44' W 070°12'0 0.0
2018-Jun-21 01:30N 43°44' W 070°12'0 0.0
2018-Jun-21 01:00N 43°44' W 070°12'0 0.0
2018-Jun-21 00:30N 43°44' W 070°12'0 0.0
2018-Jun-21 00:00N 43°44' W 070°12'0 0.0
2018-Jun-20 23:30N 43°44' W 070°12'0 0.0
2018-Jun-20 23:00N 43°44' W 070°12'0 0.0
2018-Jun-20 22:30N 43°44' W 070°12'0 0.0
2018-Jun-20 22:00N 43°44' W 070°12'0 0.0
2018-Jun-20 21:30N 43°44' W 070°12'0 0.0
2018-Jun-20 21:00N 43°44' W 070°12'0 0.0
2018-Jun-20 20:27N 43°44' W 070°12'0 0.0
2018-Jun-20 19:42N 43°44' W 070°12'0 0.0
2018-Jun-20 19:30N 43°44' W 070°12'0 0.0
2018-Jun-20 19:00N 43°44' W 070°12'0 0.0
2018-Jun-20 16:42N 43°44' W 070°12'0 0.0
2018-Jun-20 16:30N 43°44' W 070°12'0 0.0
2018-Jun-20 16:00N 43°44' W 070°12'0 0.0
2018-Jun-20 15:30N 43°44' W 070°12'0 0.0
2018-Jun-20 15:00N 43°44' W 070°12'0 0.0
2018-Jun-20 14:30N 43°44' W 070°12'0 0.0
2018-Jun-20 14:00N 43°44' W 070°12'0 0.0
2018-Jun-20 13:30N 43°44' W 070°12'0 0.1
2018-Jun-20 13:00N 43°44' W 070°12'0 0.0
2018-Jun-20 12:30N 43°44' W 070°12'0 0.0
2018-Jun-20 12:00N 43°44' W 070°12'0 0.0
2018-Jun-20 11:30N 43°44' W 070°12'0 0.0
2018-Jun-20 11:00N 43°44' W 070°12'0 0.0
2018-Jun-20 10:30N 43°44' W 070°12'0 0.0
2018-Jun-20 10:00N 43°44' W 070°12'0 0.0
2018-Jun-20 09:30N 43°44' W 070°12'0 0.0
2018-Jun-20 09:00N 43°44' W 070°12'0 0.0
2018-Jun-20 08:30N 43°44' W 070°12'0 0.0
2018-Jun-20 08:00N 43°44' W 070°12'0 0.0
2018-Jun-20 07:30N 43°44' W 070°12'0 0.0
2018-Jun-20 07:00N 43°44' W 070°12'0 0.0
2018-Jun-20 06:30N 43°44' W 070°12'0 0.0
2018-Jun-20 06:00N 43°44' W 070°12'0 0.0
2018-Jun-20 05:30N 43°44' W 070°12'0 0.0
2018-Jun-20 05:00N 43°44' W 070°12'0 0.0
2018-Jun-20 04:30N 43°44' W 070°12'0 0.0
2018-Jun-20 04:00N 43°44' W 070°12'0 0.0
2018-Jun-20 03:30N 43°44' W 070°12'0 0.0
2018-Jun-20 03:00N 43°44' W 070°12'0 0.0
2018-Jun-20 02:30N 43°44' W 070°12'0 0.0
2018-Jun-20 02:00N 43°44' W 070°12'0 0.0
2018-Jun-20 01:30N 43°44' W 070°12'0 0.0
2018-Jun-20 01:00N 43°44' W 070°12'0 0.0
2018-Jun-20 00:27N 43°44' W 070°12'0 0.0
2018-Jun-20 00:00N 43°44' W 070°12'0 0.0
2018-Jun-19 23:30N 43°44' W 070°12'0 0.0
2018-Jun-19 23:00N 43°44' W 070°12'0 0.0
2018-Jun-19 22:30N 43°44' W 070°12'0 0.0
2018-Jun-19 22:00N 43°44' W 070°12'0 0.0
2018-Jun-19 21:30N 43°44' W 070°12'0 0.0
2018-Jun-19 21:00N 43°44' W 070°12'0 0.0
2018-Jun-19 20:30N 43°44' W 070°12'0 0.0
2018-Jun-19 20:00N 43°44' W 070°12'0 0.0
2018-Jun-19 19:30N 43°44' W 070°12'0 0.1
2018-Jun-19 18:47N 43°44' W 070°12'0 0.0
2018-Jun-19 18:29N 43°44' W 070°12'0 0.0
2018-Jun-19 17:59N 43°44' W 070°12'0 0.0
2018-Jun-19 17:29N 43°44' W 070°12'0 0.0
2018-Jun-19 16:59N 43°44' W 070°12'0 0.0
2018-Jun-19 16:29N 43°44' W 070°12'0 0.0
2018-Jun-19 15:59N 43°44' W 070°12'0 0.0
2018-Jun-19 15:29N 43°44' W 070°12'0 0.0
2018-Jun-19 14:59N 43°44' W 070°12'0 0.0
2018-Jun-19 14:29N 43°44' W 070°12'0 0.0
2018-Jun-19 13:59N 43°44' W 070°12'0 0.0
2018-Jun-19 13:29N 43°44' W 070°12'0 0.0
2018-Jun-19 12:56N 43°44' W 070°12'0 0.0
2018-Jun-19 12:29N 43°44' W 070°12'0 0.0
2018-Jun-19 11:59N 43°44' W 070°12'0 0.0
2018-Jun-19 11:29N 43°44' W 070°12'0 0.0
2018-Jun-19 10:59N 43°44' W 070°12'0 0.0
2018-Jun-19 10:26N 43°44' W 070°12'0 0.0
2018-Jun-19 09:59N 43°44' W 070°12'0 0.0
2018-Jun-19 09:29N 43°44' W 070°12'0 0.0
2018-Jun-19 08:59N 43°44' W 070°12'0 0.0
2018-Jun-19 08:29N 43°44' W 070°12'0 0.0
2018-Jun-19 07:56N 43°44' W 070°12'0 0.0
2018-Jun-19 07:29N 43°44' W 070°12'0 0.0
2018-Jun-19 06:59N 43°44' W 070°12'0 0.0
2018-Jun-19 06:29N 43°44' W 070°12'0 0.0
2018-Jun-19 05:56N 43°44' W 070°12'0 0.0
2018-Jun-19 05:29N 43°44' W 070°12'0 0.0
2018-Jun-19 04:59N 43°44' W 070°12'0 0.0
2018-Jun-19 04:29N 43°44' W 070°12'0 0.0
2018-Jun-19 03:59N 43°44' W 070°12'0 0.0
2018-Jun-19 03:29N 43°44' W 070°12'0 0.0
2018-Jun-19 02:59N 43°44' W 070°12'0 0.0
2018-Jun-19 02:29N 43°44' W 070°12'0 0.0
2018-Jun-19 01:59N 43°44' W 070°12'0 0.0
2018-Jun-19 01:29N 43°44' W 070°12'0 0.0
2018-Jun-19 00:59N 43°44' W 070°12'0 0.0
2018-Jun-19 00:29N 43°44' W 070°12'0 0.0
2018-Jun-18 23:59N 43°44' W 070°12'0 0.0
2018-Jun-18 23:17N 43°44' W 070°12'0 0.1
2018-Jun-18 22:59N 43°44' W 070°12'0 0.0
2018-Jun-18 22:17N 43°44' W 070°12'0 0.0
2018-Jun-18 21:47N 43°44' W 070°12'0 0.0
2018-Jun-18 21:29N 43°44' W 070°12'0 0.0
2018-Jun-18 20:59N 43°44' W 070°12'0 0.0
2018-Jun-18 19:44N 43°44' W 070°12'0 0.0
2018-Jun-18 19:29N 43°44' W 070°12'0 0.0
2018-Jun-18 18:59N 43°44' W 070°12'0 0.0
2018-Jun-18 18:29N 43°44' W 070°12'0 0.0
2018-Jun-18 17:59N 43°44' W 070°12'0 0.0
2018-Jun-18 17:29N 43°44' W 070°12'0 0.0
2018-Jun-18 16:59N 43°44' W 070°12'0 0.0
2018-Jun-18 16:29N 43°44' W 070°12'0 0.0
2018-Jun-18 15:59N 43°44' W 070°12'0 0.0
2018-Jun-18 15:29N 43°44' W 070°12'0 0.0
2018-Jun-18 14:59N 43°44' W 070°12'0 0.0
2018-Jun-18 14:29N 43°44' W 070°12'0 0.0
2018-Jun-18 13:59N 43°44' W 070°12'0 0.0
2018-Jun-18 13:29N 43°44' W 070°12'0 0.0
2018-Jun-18 12:59N 43°44' W 070°12'0 0.0
2018-Jun-18 12:29N 43°44' W 070°12'0 0.0
2018-Jun-18 11:59N 43°44' W 070°12'0 0.0
2018-Jun-18 11:23N 43°44' W 070°12'0 0.0
2018-Jun-18 10:59N 43°44' W 070°12'0 0.0
2018-Jun-18 10:26N 43°44' W 070°12'0 0.0
2018-Jun-18 09:59N 43°44' W 070°12'0 0.0
2018-Jun-18 09:29N 43°44' W 070°12'0 0.0
2018-Jun-18 08:59N 43°44' W 070°12'0 0.0
2018-Jun-18 08:29N 43°44' W 070°12'0 0.0
2018-Jun-18 07:59N 43°44' W 070°12'0 0.0
2018-Jun-18 07:29N 43°44' W 070°12'0 0.0
2018-Jun-18 06:59N 43°44' W 070°12'0 0.0
2018-Jun-18 06:29N 43°44' W 070°12'0 0.0
2018-Jun-18 05:59N 43°44' W 070°12'0 0.0
2018-Jun-18 05:29N 43°44' W 070°12'0 0.0
2018-Jun-18 04:59N 43°44' W 070°12'0 0.0
2018-Jun-18 04:29N 43°44' W 070°12'0 0.0
2018-Jun-18 03:59N 43°44' W 070°12'0 0.0
2018-Jun-18 03:29N 43°44' W 070°12'0 0.0
2018-Jun-18 02:59N 43°44' W 070°12'0 0.0
2018-Jun-18 02:29N 43°44' W 070°12'0 0.0
2018-Jun-18 01:59N 43°44' W 070°12'0 0.0
2018-Jun-18 01:29N 43°44' W 070°12'0 0.0
2018-Jun-18 00:59N 43°44' W 070°12'0 0.0
2018-Jun-18 00:29N 43°44' W 070°12'0 0.0
2018-Jun-17 23:59N 43°44' W 070°12'0 0.0
2018-Jun-17 23:29N 43°44' W 070°12'0 0.0
2018-Jun-17 22:59N 43°44' W 070°12'0 0.0
2018-Jun-17 22:26N 43°44' W 070°12'0 0.0
2018-Jun-17 21:59N 43°44' W 070°12'0 0.0
2018-Jun-17 21:26N 43°44' W 070°12'0 0.0
2018-Jun-17 20:59N 43°44' W 070°12'0 0.0
2018-Jun-17 20:29N 43°44' W 070°12'0 0.0
2018-Jun-17 19:59N 43°44' W 070°12'0 0.0
2018-Jun-17 19:29N 43°44' W 070°12'0 0.0
2018-Jun-17 18:59N 43°44' W 070°12'0 0.0
2018-Jun-17 18:29N 43°44' W 070°12'0 0.0
2018-Jun-17 17:59N 43°44' W 070°12'0 0.0
2018-Jun-17 17:29N 43°44' W 070°12'0 0.0
2018-Jun-17 16:59N 43°44' W 070°12'0 0.0
2018-Jun-17 16:29N 43°44' W 070°12'0 0.0
2018-Jun-17 15:59N 43°44' W 070°12'0 0.0
2018-Jun-17 15:26N 43°44' W 070°12'0 0.0
2018-Jun-17 14:59N 43°44' W 070°12'0 0.0
2018-Jun-17 14:29N 43°44' W 070°12'0 0.0
2018-Jun-17 13:59N 43°44' W 070°12'0 0.0
2018-Jun-17 13:29N 43°44' W 070°12'0 0.0
2018-Jun-17 12:59N 43°44' W 070°12'0 0.0
2018-Jun-17 12:29N 43°44' W 070°12'0 0.0
2018-Jun-17 11:59N 43°44' W 070°12'0 0.0
2018-Jun-17 11:29N 43°44' W 070°12'0 0.0
2018-Jun-17 10:59N 43°44' W 070°12'0 0.0
2018-Jun-17 10:29N 43°44' W 070°12'0 0.0
2018-Jun-17 09:59N 43°44' W 070°12'0 0.0
2018-Jun-17 09:29N 43°44' W 070°12'0 0.0
2018-Jun-17 08:59N 43°44' W 070°12'0 0.0
2018-Jun-17 08:29N 43°44' W 070°12'0 0.0
2018-Jun-17 07:56N 43°44' W 070°12'0 0.0
2018-Jun-17 07:29N 43°44' W 070°12'0 0.0
2018-Jun-17 06:59N 43°44' W 070°12'0 0.0
2018-Jun-17 06:29N 43°44' W 070°12'0 0.0
2018-Jun-17 05:59N 43°44' W 070°12'0 0.0
2018-Jun-17 05:29N 43°44' W 070°12'0 0.0
2018-Jun-17 04:59N 43°44' W 070°12'0 0.0
2018-Jun-17 04:29N 43°44' W 070°12'0 0.0
2018-Jun-17 03:56N 43°44' W 070°12'0 0.0
2018-Jun-17 03:29N 43°44' W 070°12'0 0.0
2018-Jun-17 02:59N 43°44' W 070°12'0 0.0
2018-Jun-17 02:29N 43°44' W 070°12'0 0.0
2018-Jun-17 01:59N 43°44' W 070°12'0 0.0
2018-Jun-17 01:29N 43°44' W 070°12'0 0.0
2018-Jun-17 00:59N 43°44' W 070°12'0 0.0
2018-Jun-17 00:29N 43°44' W 070°12'0 0.0
2018-Jun-16 23:59N 43°44' W 070°12'0 0.0
2018-Jun-16 23:29N 43°44' W 070°12'0 0.0
2018-Jun-16 22:59N 43°44' W 070°12'0 0.0
2018-Jun-16 22:29N 43°44' W 070°12'0 0.0
2018-Jun-16 21:59N 43°44' W 070°12'0 0.0
2018-Jun-16 21:29N 43°44' W 070°12'0 0.0
2018-Jun-16 20:59N 43°44' W 070°12'0 0.0
2018-Jun-16 20:29N 43°44' W 070°12'0 0.0
2018-Jun-16 19:59N 43°44' W 070°12'0 0.0
2018-Jun-16 19:29N 43°44' W 070°12'0 0.0
2018-Jun-16 18:59N 43°44' W 070°12'0 0.0
2018-Jun-16 18:29N 43°44' W 070°12'0 0.0
2018-Jun-16 17:59N 43°44' W 070°12'0 0.0
2018-Jun-16 17:29N 43°44' W 070°12'0 0.0
2018-Jun-16 16:59N 43°44' W 070°12'0 0.0
2018-Jun-16 16:29N 43°44' W 070°12'0 0.0
2018-Jun-16 15:59N 43°44' W 070°12'0 0.0
2018-Jun-16 15:29N 43°44' W 070°12'0 0.0
2018-Jun-16 14:59N 43°44' W 070°12'0 0.0
2018-Jun-16 14:29N 43°44' W 070°12'0 0.0
2018-Jun-16 13:56N 43°44' W 070°12'0 0.0
2018-Jun-16 13:26N 43°44' W 070°12'0 0.0
2018-Jun-16 12:59N 43°44' W 070°12'0 0.0
2018-Jun-16 12:29N 43°44' W 070°12'0 0.0
2018-Jun-16 11:59N 43°44' W 070°12'0 0.0
2018-Jun-16 11:29N 43°44' W 070°12'0 0.0
2018-Jun-16 10:59N 43°44' W 070°12'0 0.0
2018-Jun-16 10:29N 43°44' W 070°12'0 0.0
2018-Jun-16 09:59N 43°44' W 070°12'0 0.0
2018-Jun-16 09:29N 43°44' W 070°12'0 0.0
2018-Jun-16 08:59N 43°44' W 070°12'0 0.0
2018-Jun-16 08:29N 43°44' W 070°12'0 0.0
2018-Jun-16 07:59N 43°44' W 070°12'0 0.0
2018-Jun-16 07:29N 43°44' W 070°12'0 0.0
2018-Jun-16 06:59N 43°44' W 070°12'0 0.0
2018-Jun-16 06:29N 43°44' W 070°12'0 0.0
2018-Jun-16 05:59N 43°44' W 070°12'0 0.0
2018-Jun-16 05:29N 43°44' W 070°12'0 0.0
2018-Jun-16 04:59N 43°44' W 070°12'0 0.0
2018-Jun-16 04:26N 43°44' W 070°12'0 0.0
2018-Jun-16 03:59N 43°44' W 070°12'0 0.0
2018-Jun-16 03:29N 43°44' W 070°12'0 0.0
2018-Jun-16 02:59N 43°44' W 070°12'0 0.0
2018-Jun-16 02:29N 43°44' W 070°12'0 0.0
2018-Jun-16 01:59N 43°44' W 070°12'0 0.0
2018-Jun-16 01:29N 43°44' W 070°12'0 0.0
2018-Jun-16 00:59N 43°44' W 070°12'0 0.0
2018-Jun-16 00:29N 43°44' W 070°12'0 0.0
2018-Jun-15 23:59N 43°44' W 070°12'0 0.0
2018-Jun-15 23:29N 43°44' W 070°12'0 0.0
2018-Jun-15 22:56N 43°44' W 070°12'0 0.0
2018-Jun-15 22:29N 43°44' W 070°12'0 0.0
2018-Jun-15 21:59N 43°44' W 070°12'0 0.0
2018-Jun-15 21:29N 43°44' W 070°12'0 0.0
2018-Jun-15 20:59N 43°44' W 070°12'0 0.0
2018-Jun-15 20:29N 43°44' W 070°12'0 0.0
2018-Jun-15 19:59N 43°44' W 070°12'0 0.0
2018-Jun-15 19:29N 43°44' W 070°12'0 0.0
2018-Jun-15 18:59N 43°44' W 070°12'0 0.0
2018-Jun-15 18:29N 43°44' W 070°12'0 0.0
2018-Jun-15 17:59N 43°44' W 070°12'0 0.0
2018-Jun-15 17:29N 43°44' W 070°12'0 0.0
2018-Jun-15 16:59N 43°44' W 070°12'0 0.0
2018-Jun-15 16:29N 43°44' W 070°12'0 0.0
2018-Jun-15 15:59N 43°44' W 070°12'0 0.0
2018-Jun-15 15:29N 43°44' W 070°12'0 0.0
2018-Jun-15 14:56N 43°44' W 070°12'0 0.0
2018-Jun-15 14:26N 43°44' W 070°12'0 0.0
2018-Jun-15 13:59N 43°44' W 070°12'0 0.0
2018-Jun-15 13:29N 43°44' W 070°12'0 0.0
2018-Jun-15 12:59N 43°44' W 070°12'  
Track history (hours):
 
Tides and Currents Weather Stations Pressure Air Temp Water Temp Dewpoint Dewpoint Depression Visibility Wind Speed Wind Dir Waves Ship Positions

Bjoyce

Owner: BJoyce Adventures LLC, Green Cove Springs, FL. More information available from US FCC via Universal Licensing System and Coast Guard Vessel Documentation Center.

Last reported at 2018-Jun-25 12:45 UTC. Time now 2018-Jun-25 17:51 UTC.
Position N 44°11' W 068°57'.

Length 17 m; draft 2.1 m.

Type: Pleasure craft. MMSI: 367434020.

Date/timePositionNaut miles runAvg speedWind from/ knotsBaromVisibWave heightAir tempDewpointWater temp
2018-Jun-25 12:45N 44°11' W 068°57'2 7.2
2018-Jun-25 12:30N 44°09' W 068°58'3 6.7
2018-Jun-25 12:00N 44°07' W 069°01'9 1.0
2018-Jun-25 03:45N 43°60' W 069°08'0 0.0
2018-Jun-25 03:29N 43°60' W 069°08'0 0.0
2018-Jun-25 02:59N 43°60' W 069°08'49 1.0
2018-Jun-23 03:12N 43°44' W 070°12'0 0.0
2018-Jun-23 02:54N 43°44' W 070°12'0 0.0
2018-Jun-23 02:24N 43°44' W 070°12'0 0.0
2018-Jun-21 16:57N 43°44' W 070°12'0 0.0
2018-Jun-21 16:30N 43°44' W 070°12'0 0.0
2018-Jun-21 15:54N 43°44' W 070°12'0 0.0
2018-Jun-21 15:30N 43°44' W 070°12'0 0.0
2018-Jun-21 15:00N 43°44' W 070°12'0 0.0
2018-Jun-21 14:30N 43°44' W 070°12'0 0.0
2018-Jun-21 12:57N 43°44' W 070°12'0 0.0
2018-Jun-21 12:30N 43°44' W 070°12'0 0.0
2018-Jun-21 12:00N 43°44' W 070°12'0 0.0
2018-Jun-21 11:30N 43°44' W 070°12'0 0.0
2018-Jun-21 11:00N 43°44' W 070°12'0 0.0
2018-Jun-21 10:24N 43°44' W 070°12'0 0.0
2018-Jun-21 10:00N 43°44' W 070°12'0 0.0
2018-Jun-21 09:30N 43°44' W 070°12'0 0.0
2018-Jun-21 09:00N 43°44' W 070°12'0 0.0
2018-Jun-21 08:27N 43°44' W 070°12'0 0.0
2018-Jun-21 07:57N 43°44' W 070°12'0 0.0
2018-Jun-21 07:30N 43°44' W 070°12'0 0.0
2018-Jun-21 07:00N 43°44' W 070°12'0 0.0
2018-Jun-21 06:30N 43°44' W 070°12'0 0.0
2018-Jun-21 06:00N 43°44' W 070°12'0 0.0
2018-Jun-21 05:30N 43°44' W 070°12'0 0.0
2018-Jun-21 05:00N 43°44' W 070°12'0 0.0
2018-Jun-21 04:30N 43°44' W 070°12'0 0.0
2018-Jun-21 04:00N 43°44' W 070°12'0 0.0
2018-Jun-21 03:24N 43°44' W 070°12'0 0.0
2018-Jun-21 03:00N 43°44' W 070°12'0 0.0
2018-Jun-21 02:30N 43°44' W 070°12'0 0.0
2018-Jun-21 02:00N 43°44' W 070°12'0 0.0
2018-Jun-21 01:30N 43°44' W 070°12'0 0.0
2018-Jun-21 01:00N 43°44' W 070°12'0 0.0
2018-Jun-21 00:30N 43°44' W 070°12'0 0.0
2018-Jun-21 00:00N 43°44' W 070°12'0 0.0
2018-Jun-20 23:30N 43°44' W 070°12'0 0.0
2018-Jun-20 23:00N 43°44' W 070°12'0 0.0
2018-Jun-20 22:30N 43°44' W 070°12'0 0.0
2018-Jun-20 22:00N 43°44' W 070°12'0 0.0
2018-Jun-20 21:30N 43°44' W 070°12'0 0.0
2018-Jun-20 21:00N 43°44' W 070°12'0 0.0
2018-Jun-20 20:27N 43°44' W 070°12'0 0.0
2018-Jun-20 19:42N 43°44' W 070°12'0 0.0
2018-Jun-20 19:30N 43°44' W 070°12'0 0.0
2018-Jun-20 19:00N 43°44' W 070°12'0 0.0
2018-Jun-20 16:42N 43°44' W 070°12'0 0.0
2018-Jun-20 16:30N 43°44' W 070°12'0 0.0
2018-Jun-20 16:00N 43°44' W 070°12'0 0.0
2018-Jun-20 15:30N 43°44' W 070°12'0 0.0
2018-Jun-20 15:00N 43°44' W 070°12'0 0.0
2018-Jun-20 14:30N 43°44' W 070°12'0 0.0
2018-Jun-20 14:00N 43°44' W 070°12'0 0.0
2018-Jun-20 13:30N 43°44' W 070°12'0 0.1
2018-Jun-20 13:00N 43°44' W 070°12'0 0.0
2018-Jun-20 12:30N 43°44' W 070°12'0 0.0
2018-Jun-20 12:00N 43°44' W 070°12'0 0.0
2018-Jun-20 11:30N 43°44' W 070°12'0 0.0
2018-Jun-20 11:00N 43°44' W 070°12'0 0.0
2018-Jun-20 10:30N 43°44' W 070°12'0 0.0
2018-Jun-20 10:00N 43°44' W 070°12'0 0.0
2018-Jun-20 09:30N 43°44' W 070°12'0 0.0
2018-Jun-20 09:00N 43°44' W 070°12'0 0.0
2018-Jun-20 08:30N 43°44' W 070°12'0 0.0
2018-Jun-20 08:00N 43°44' W 070°12'0 0.0
2018-Jun-20 07:30N 43°44' W 070°12'0 0.0
2018-Jun-20 07:00N 43°44' W 070°12'0 0.0
2018-Jun-20 06:30N 43°44' W 070°12'0 0.0
2018-Jun-20 06:00N 43°44' W 070°12'0 0.0
2018-Jun-20 05:30N 43°44' W 070°12'0 0.0
2018-Jun-20 05:00N 43°44' W 070°12'0 0.0
2018-Jun-20 04:30N 43°44' W 070°12'0 0.0
2018-Jun-20 04:00N 43°44' W 070°12'0 0.0
2018-Jun-20 03:30N 43°44' W 070°12'0 0.0
2018-Jun-20 03:00N 43°44' W 070°12'0 0.0
2018-Jun-20 02:30N 43°44' W 070°12'0 0.0
2018-Jun-20 02:00N 43°44' W 070°12'0 0.0
2018-Jun-20 01:30N 43°44' W 070°12'0 0.0
2018-Jun-20 01:00N 43°44' W 070°12'0 0.0
2018-Jun-20 00:27N 43°44' W 070°12'0 0.0
2018-Jun-20 00:00N 43°44' W 070°12'0 0.0
2018-Jun-19 23:30N 43°44' W 070°12'0 0.0
2018-Jun-19 23:00N 43°44' W 070°12'0 0.0
2018-Jun-19 22:30N 43°44' W 070°12'0 0.0
2018-Jun-19 22:00N 43°44' W 070°12'0 0.0
2018-Jun-19 21:30N 43°44' W 070°12'0 0.0
2018-Jun-19 21:00N 43°44' W 070°12'0 0.0
2018-Jun-19 20:30N 43°44' W 070°12'0 0.0
2018-Jun-19 20:00N 43°44' W 070°12'0 0.0
2018-Jun-19 19:30N 43°44' W 070°12'0 0.1
2018-Jun-19 18:47N 43°44' W 070°12'0 0.0
2018-Jun-19 18:29N 43°44' W 070°12'0 0.0
2018-Jun-19 17:59N 43°44' W 070°12'0 0.0
2018-Jun-19 17:29N 43°44' W 070°12'0 0.0
2018-Jun-19 16:59N 43°44' W 070°12'0 0.0
2018-Jun-19 16:29N 43°44' W 070°12'0 0.0
2018-Jun-19 15:59N 43°44' W 070°12'0 0.0
2018-Jun-19 15:29N 43°44' W 070°12'0 0.0
2018-Jun-19 14:59N 43°44' W 070°12'0 0.0
2018-Jun-19 14:29N 43°44' W 070°12'0 0.0
2018-Jun-19 13:59N 43°44' W 070°12'0 0.0
2018-Jun-19 13:29N 43°44' W 070°12'0 0.0
2018-Jun-19 12:56N 43°44' W 070°12'0 0.0
2018-Jun-19 12:29N 43°44' W 070°12'0 0.0
2018-Jun-19 11:59N 43°44' W 070°12'0 0.0
2018-Jun-19 11:29N 43°44' W 070°12'0 0.0
2018-Jun-19 10:59N 43°44' W 070°12'0 0.0
2018-Jun-19 10:26N 43°44' W 070°12'0 0.0
2018-Jun-19 09:59N 43°44' W 070°12'0 0.0
2018-Jun-19 09:29N 43°44' W 070°12'0 0.0
2018-Jun-19 08:59N 43°44' W 070°12'0 0.0
2018-Jun-19 08:29N 43°44' W 070°12'0 0.0
2018-Jun-19 07:56N 43°44' W 070°12'0 0.0
2018-Jun-19 07:29N 43°44' W 070°12'0 0.0
2018-Jun-19 06:59N 43°44' W 070°12'0 0.0
2018-Jun-19 06:29N 43°44' W 070°12'0 0.0
2018-Jun-19 05:56N 43°44' W 070°12'0 0.0
2018-Jun-19 05:29N 43°44' W 070°12'0 0.0
2018-Jun-19 04:59N 43°44' W 070°12'0 0.0
2018-Jun-19 04:29N 43°44' W 070°12'0 0.0
2018-Jun-19 03:59N 43°44' W 070°12'0 0.0
2018-Jun-19 03:29N 43°44' W 070°12'0 0.0
2018-Jun-19 02:59N 43°44' W 070°12'0 0.0
2018-Jun-19 02:29N 43°44' W 070°12'0 0.0
2018-Jun-19 01:59N 43°44' W 070°12'0 0.0
2018-Jun-19 01:29N 43°44' W 070°12'0 0.0
2018-Jun-19 00:59N 43°44' W 070°12'0 0.0
2018-Jun-19 00:29N 43°44' W 070°12'0 0.0
2018-Jun-18 23:59N 43°44' W 070°12'0 0.0
2018-Jun-18 23:17N 43°44' W 070°12'0 0.1
2018-Jun-18 22:59N 43°44' W 070°12'0 0.0
2018-Jun-18 22:17N 43°44' W 070°12'0 0.0
2018-Jun-18 21:47N 43°44' W 070°12'0 0.0
2018-Jun-18 21:29N 43°44' W 070°12'0 0.0
2018-Jun-18 20:59N 43°44' W 070°12'0 0.0
2018-Jun-18 19:44N 43°44' W 070°12'0 0.0
2018-Jun-18 19:29N 43°44' W 070°12'0 0.0
2018-Jun-18 18:59N 43°44' W 070°12'0 0.0
2018-Jun-18 18:29N 43°44' W 070°12'0 0.0
2018-Jun-18 17:59N 43°44' W 070°12'0 0.0
2018-Jun-18 17:29N 43°44' W 070°12'0 0.0
2018-Jun-18 16:59N 43°44' W 070°12'0 0.0
2018-Jun-18 16:29N 43°44' W 070°12'0 0.0
2018-Jun-18 15:59N 43°44' W 070°12'0 0.0
2018-Jun-18 15:29N 43°44' W 070°12'0 0.0
2018-Jun-18 14:59N 43°44' W 070°12'0 0.0
2018-Jun-18 14:29N 43°44' W 070°12'0 0.0
2018-Jun-18 13:59N 43°44' W 070°12'0 0.0
2018-Jun-18 13:29N 43°44' W 070°12'0 0.0
2018-Jun-18 12:59N 43°44' W 070°12'0 0.0
2018-Jun-18 12:29N 43°44' W 070°12'0 0.0
2018-Jun-18 11:59N 43°44' W 070°12'0 0.0
2018-Jun-18 11:23N 43°44' W 070°12'0 0.0
2018-Jun-18 10:59N 43°44' W 070°12'0 0.0
2018-Jun-18 10:26N 43°44' W 070°12'0 0.0
2018-Jun-18 09:59N 43°44' W 070°12'0 0.0
2018-Jun-18 09:29N 43°44' W 070°12'0 0.0
2018-Jun-18 08:59N 43°44' W 070°12'0 0.0
2018-Jun-18 08:29N 43°44' W 070°12'0 0.0
2018-Jun-18 07:59N 43°44' W 070°12'0 0.0
2018-Jun-18 07:29N 43°44' W 070°12'0 0.0
2018-Jun-18 06:59N 43°44' W 070°12'0 0.0
2018-Jun-18 06:29N 43°44' W 070°12'0 0.0
2018-Jun-18 05:59N 43°44' W 070°12'0 0.0
2018-Jun-18 05:29N 43°44' W 070°12'0 0.0
2018-Jun-18 04:59N 43°44' W 070°12'0 0.0
2018-Jun-18 04:29N 43°44' W 070°12'0 0.0
2018-Jun-18 03:59N 43°44' W 070°12'0 0.0
2018-Jun-18 03:29N 43°44' W 070°12'0 0.0
2018-Jun-18 02:59N 43°44' W 070°12'0 0.0
2018-Jun-18 02:29N 43°44' W 070°12'0 0.0
2018-Jun-18 01:59N 43°44' W 070°12'0 0.0
2018-Jun-18 01:29N 43°44' W 070°12'0 0.0
2018-Jun-18 00:59N 43°44' W 070°12'0 0.0
2018-Jun-18 00:29N 43°44' W 070°12'0 0.0
2018-Jun-17 23:59N 43°44' W 070°12'0 0.0
2018-Jun-17 23:29N 43°44' W 070°12'0 0.0
2018-Jun-17 22:59N 43°44' W 070°12'0 0.0
2018-Jun-17 22:26N 43°44' W 070°12'0 0.0
2018-Jun-17 21:59N 43°44' W 070°12'0 0.0
2018-Jun-17 21:26N 43°44' W 070°12'0 0.0
2018-Jun-17 20:59N 43°44' W 070°12'0 0.0
2018-Jun-17 20:29N 43°44' W 070°12'0 0.0
2018-Jun-17 19:59N 43°44' W 070°12'0 0.0
2018-Jun-17 19:29N 43°44' W 070°12'0 0.0
2018-Jun-17 18:59N 43°44' W 070°12'0 0.0
2018-Jun-17 18:29N 43°44' W 070°12'0 0.0
2018-Jun-17 17:59N 43°44' W 070°12'0 0.0
2018-Jun-17 17:29N 43°44' W 070°12'0 0.0
2018-Jun-17 16:59N 43°44' W 070°12'0 0.0
2018-Jun-17 16:29N 43°44' W 070°12'0 0.0
2018-Jun-17 15:59N 43°44' W 070°12'0 0.0
2018-Jun-17 15:26N 43°44' W 070°12'0 0.0
2018-Jun-17 14:59N 43°44' W 070°12'0 0.0
2018-Jun-17 14:29N 43°44' W 070°12'0 0.0
2018-Jun-17 13:59N 43°44' W 070°12'0 0.0
2018-Jun-17 13:29N 43°44' W 070°12'0 0.0
2018-Jun-17 12:59N 43°44' W 070°12'0 0.0
2018-Jun-17 12:29N 43°44' W 070°12'0 0.0
2018-Jun-17 11:59N 43°44' W 070°12'0 0.0
2018-Jun-17 11:29N 43°44' W 070°12'0 0.0
2018-Jun-17 10:59N 43°44' W 070°12'0 0.0
2018-Jun-17 10:29N 43°44' W 070°12'0 0.0
2018-Jun-17 09:59N 43°44' W 070°12'0 0.0
2018-Jun-17 09:29N 43°44' W 070°12'0 0.0
2018-Jun-17 08:59N 43°44' W 070°12'0 0.0
2018-Jun-17 08:29N 43°44' W 070°12'0 0.0
2018-Jun-17 07:56N 43°44' W 070°12'0 0.0
2018-Jun-17 07:29N 43°44' W 070°12'0 0.0
2018-Jun-17 06:59N 43°44' W 070°12'0 0.0
2018-Jun-17 06:29N 43°44' W 070°12'0 0.0
2018-Jun-17 05:59N 43°44' W 070°12'0 0.0
2018-Jun-17 05:29N 43°44' W 070°12'0 0.0
2018-Jun-17 04:59N 43°44' W 070°12'0 0.0
2018-Jun-17 04:29N 43°44' W 070°12'0 0.0
2018-Jun-17 03:56N 43°44' W 070°12'0 0.0
2018-Jun-17 03:29N 43°44' W 070°12'0 0.0
2018-Jun-17 02:59N 43°44' W 070°12'0 0.0
2018-Jun-17 02:29N 43°44' W 070°12'0 0.0
2018-Jun-17 01:59N 43°44' W 070°12'0 0.0
2018-Jun-17 01:29N 43°44' W 070°12'0 0.0
2018-Jun-17 00:59N 43°44' W 070°12'0 0.0
2018-Jun-17 00:29N 43°44' W 070°12'0 0.0
2018-Jun-16 23:59N 43°44' W 070°12'0 0.0
2018-Jun-16 23:29N 43°44' W 070°12'0 0.0
2018-Jun-16 22:59N 43°44' W 070°12'0 0.0
2018-Jun-16 22:29N 43°44' W 070°12'0 0.0
2018-Jun-16 21:59N 43°44' W 070°12'0 0.0
2018-Jun-16 21:29N 43°44' W 070°12'0 0.0
2018-Jun-16 20:59N 43°44' W 070°12'0 0.0
2018-Jun-16 20:29N 43°44' W 070°12'0 0.0
2018-Jun-16 19:59N 43°44' W 070°12'0 0.0
2018-Jun-16 19:29N 43°44' W 070°12'0 0.0
2018-Jun-16 18:59N 43°44' W 070°12'0 0.0
2018-Jun-16 18:29N 43°44' W 070°12'0 0.0
2018-Jun-16 17:59N 43°44' W 070°12'0 0.0
2018-Jun-16 17:29N 43°44' W 070°12'0 0.0
2018-Jun-16 16:59N 43°44' W 070°12'0 0.0
2018-Jun-16 16:29N 43°44' W 070°12'0 0.0
2018-Jun-16 15:59N 43°44' W 070°12'0 0.0
2018-Jun-16 15:29N 43°44' W 070°12'0 0.0
2018-Jun-16 14:59N 43°44' W 070°12'0 0.0
2018-Jun-16 14:29N 43°44' W 070°12'0 0.0
2018-Jun-16 13:56N 43°44' W 070°12'0 0.0
2018-Jun-16 13:26N 43°44' W 070°12'0 0.0
2018-Jun-16 12:59N 43°44' W 070°12'0 0.0
2018-Jun-16 12:29N 43°44' W 070°12'0 0.0
2018-Jun-16 11:59N 43°44' W 070°12'0 0.0
2018-Jun-16 11:29N 43°44' W 070°12'0 0.0
2018-Jun-16 10:59N 43°44' W 070°12'0 0.0
2018-Jun-16 10:29N 43°44' W 070°12'0 0.0
2018-Jun-16 09:59N 43°44' W 070°12'0 0.0
2018-Jun-16 09:29N 43°44' W 070°12'0 0.0
2018-Jun-16 08:59N 43°44' W 070°12'0 0.0
2018-Jun-16 08:29N 43°44' W 070°12'0 0.0
2018-Jun-16 07:59N 43°44' W 070°12'0 0.0
2018-Jun-16 07:29N 43°44' W 070°12'0 0.0
2018-Jun-16 06:59N 43°44' W 070°12'0 0.0
2018-Jun-16 06:29N 43°44' W 070°12'0 0.0
2018-Jun-16 05:59N 43°44' W 070°12'0 0.0
2018-Jun-16 05:29N 43°44' W 070°12'0 0.0
2018-Jun-16 04:59N 43°44' W 070°12'0 0.0
2018-Jun-16 04:26N 43°44' W 070°12'0 0.0
2018-Jun-16 03:59N 43°44' W 070°12'0 0.0
2018-Jun-16 03:29N 43°44' W 070°12'0 0.0
2018-Jun-16 02:59N 43°44' W 070°12'0 0.0
2018-Jun-16 02:29N 43°44' W 070°12'0 0.0
2018-Jun-16 01:59N 43°44' W 070°12'0 0.0
2018-Jun-16 01:29N 43°44' W 070°12'0 0.0
2018-Jun-16 00:59N 43°44' W 070°12'0 0.0
2018-Jun-16 00:29N 43°44' W 070°12'0 0.0
2018-Jun-15 23:59N 43°44' W 070°12'0 0.0
2018-Jun-15 23:29N 43°44' W 070°12'0 0.0
2018-Jun-15 22:56N 43°44' W 070°12'0 0.0
2018-Jun-15 22:29N 43°44' W 070°12'0 0.0
2018-Jun-15 21:59N 43°44' W 070°12'0 0.0
2018-Jun-15 21:29N 43°44' W 070°12'0 0.0
2018-Jun-15 20:59N 43°44' W 070°12'0 0.0
2018-Jun-15 20:29N 43°44' W 070°12'0 0.0
2018-Jun-15 19:59N 43°44' W 070°12'0 0.0
2018-Jun-15 19:29N 43°44' W 070°12'0 0.0
2018-Jun-15 18:59N 43°44' W 070°12'0 0.0
2018-Jun-15 18:29N 43°44' W 070°12'0 0.0
2018-Jun-15 17:59N 43°44' W 070°12'0 0.0
2018-Jun-15 17:29N 43°44' W 070°12'0 0.0
2018-Jun-15 16:59N 43°44' W 070°12'0 0.0
2018-Jun-15 16:29N 43°44' W 070°12'0 0.0
2018-Jun-15 15:59N 43°44' W 070°12'0 0.0
2018-Jun-15 15:29N 43°44' W 070°12'0 0.0
2018-Jun-15 14:56N 43°44' W 070°12'0 0.0
2018-Jun-15 14:26N 43°44' W 070°12'0 0.0
2018-Jun-15 13:59N 43°44' W 070°12'0 0.0
2018-Jun-15 13:29N 43°44' W 070°12'0 0.0
2018-Jun-15 12:59N 43°44' W 070°12'  

Dump ship's entire track history